Time;durP1;ratioP1;P1;durP2;ratioP2;P2;SDS_P1;SDS_P2;PMS_P1;PMS_P2;Temp;Humidity;BMP_temperature;BMP_pressure;BME280_temperature;BME280_humidity;BME280_pressure;Samples;Min_cycle;Max_cycle;Signal;HPM_P1;HPM_P2
2022/05/06 00:01:45;;;;;;;27.33;16.43;;;9.70;99.90;;;;;;5035480;28;20428;-63
2022/05/06 00:04:11;;;;;;;30.40;17.07;;;9.70;99.90;;;;;;5035233;28;20458;-64
2022/05/06 00:06:37;;;;;;;34.77;18.40;;;9.70;99.90;;;;;;5035272;28;20402;-64
2022/05/06 00:09:04;;;;;;;25.20;16.33;;;9.70;99.90;;;;;;5034658;28;20185;-63
2022/05/06 00:11:31;;;;;;;31.67;18.10;;;9.70;99.90;;;;;;5035316;28;20482;-64
2022/05/06 00:13:56;;;;;;;30.30;16.10;;;9.70;99.90;;;;;;5035265;28;20961;-69
2022/05/06 00:16:23;;;;;;;33.77;16.90;;;9.70;99.90;;;;;;5034576;28;20405;-63
2022/05/06 00:18:50;;;;;;;34.17;18.50;;;9.60;99.90;;;;;;5033238;28;20290;-63
2022/05/06 00:21:16;;;;;;;26.83;17.20;;;9.70;99.90;;;;;;5035084;28;20417;-67
2022/05/06 00:23:41;;;;;;;27.77;17.00;;;9.60;99.90;;;;;;5034819;28;20973;-68
2022/05/06 00:26:08;;;;;;;31.10;17.43;;;9.60;99.90;;;;;;5034946;28;20441;-63
2022/05/06 00:28:34;;;;;;;28.50;16.47;;;9.60;99.90;;;;;;5034200;28;20552;-69
2022/05/06 00:31:01;;;;;;;26.17;15.77;;;9.60;99.90;;;;;;5034923;28;20406;-63
2022/05/06 00:33:27;;;;;;;34.47;19.90;;;9.50;99.90;;;;;;5034392;28;20432;-68
2022/05/06 00:35:56;;;;;;;31.63;18.13;;;9.50;99.90;;;;;;5034758;28;20899;-68
2022/05/06 00:38:23;;;;;;;25.67;17.23;;;9.50;99.90;;;;;;5034461;28;20402;-64
2022/05/06 00:40:48;;;;;;;33.70;16.47;;;9.50;99.90;;;;;;5034125;28;20425;-64
2022/05/06 00:43:14;;;;;;;38.87;18.80;;;9.40;99.90;;;;;;5034587;28;20453;-63
2022/05/06 00:45:49;;;;;;;33.53;16.40;;;9.40;99.90;;;;;;5034664;28;20212;-68
2022/05/06 00:48:16;;;;;;;30.73;15.60;;;9.40;99.90;;;;;;5033597;28;20579;-69
2022/05/06 00:50:43;;;;;;;32.63;16.57;;;9.40;99.90;;;;;;5032400;28;20468;-69
2022/05/06 00:53:09;;;;;;;39.97;16.70;;;9.30;99.90;;;;;;5033995;28;20433;-68
2022/05/06 00:55:36;;;;;;;27.10;16.10;;;9.20;99.90;;;;;;5034478;28;20437;-64
2022/05/06 00:58:05;;;;;;;31.70;16.97;;;9.20;99.90;;;;;;5034398;28;20420;-63
2022/05/06 01:00:31;;;;;;;28.60;15.50;;;9.10;99.90;;;;;;5033780;28;20401;-64
2022/05/06 01:02:57;;;;;;;29.53;17.10;;;9.10;99.90;;;;;;5034053;28;20469;-63
2022/05/06 01:05:23;;;;;;;28.87;18.00;;;9.10;99.90;;;;;;5033216;28;20421;-68
2022/05/06 01:07:50;;;;;;;38.73;16.37;;;9.10;99.90;;;;;;5034336;28;20163;-67
2022/05/06 01:10:20;;;;;;;28.40;15.90;;;9.00;99.90;;;;;;5032256;28;20233;-67
2022/05/06 01:12:46;;;;;;;36.30;17.43;;;9.00;99.90;;;;;;5033849;28;20426;-67
2022/05/06 01:15:20;;;;;;;32.83;16.40;;;8.90;99.90;;;;;;5034215;28;20508;-63
2022/05/06 01:17:47;;;;;;;27.73;14.87;;;8.90;99.90;;;;;;5034029;28;20400;-63
2022/05/06 01:20:17;;;;;;;26.60;14.03;;;8.80;99.90;;;;;;5033410;28;20401;-63
2022/05/06 01:22:44;;;;;;;23.43;13.30;;;8.70;99.90;;;;;;5033659;28;20460;-69
2022/05/06 01:25:10;;;;;;;28.87;15.33;;;8.60;99.90;;;;;;5033930;28;20430;-67
2022/05/06 01:27:39;;;;;;;23.40;14.87;;;8.50;99.90;;;;;;5033610;28;20403;-69
2022/05/06 01:30:05;;;;;;;28.10;15.10;;;8.50;99.90;;;;;;5033005;28;20406;-64
2022/05/06 01:32:32;;;;;;;27.57;14.90;;;8.50;99.90;;;;;;5033664;28;20421;-67
2022/05/06 01:35:00;;;;;;;22.67;14.07;;;8.40;99.90;;;;;;5032663;28;20543;-67
2022/05/06 01:37:28;;;;;;;31.80;14.83;;;8.40;99.90;;;;;;5033679;28;20415;-68
2022/05/06 01:40:01;;;;;;;27.70;14.37;;;8.40;99.90;;;;;;5032931;28;20406;-67
2022/05/06 01:42:38;;;;;;;28.47;15.40;;;8.30;99.90;;;;;;5032221;28;20437;-69
2022/05/06 01:48:31;;;;;;;22.17;12.80;;;8.30;99.90;;;;;;5033332;28;20457;-63
2022/05/06 01:50:58;;;;;;;24.73;13.30;;;8.20;99.90;;;;;;5033376;28;20812;-64
2022/05/06 01:53:24;;;;;;;25.97;14.60;;;8.20;99.90;;;;;;5033355;28;20426;-67
2022/05/06 01:55:50;;;;;;;24.17;14.37;;;8.20;99.90;;;;;;5033716;28;20546;-67
2022/05/06 01:58:16;;;;;;;33.23;14.63;;;8.20;99.90;;;;;;5033367;28;20484;-63
2022/05/06 02:00:42;;;;;;;29.17;13.77;;;8.20;99.90;;;;;;5032841;28;20235;-63
2022/05/06 02:05:16;;;;;;;25.27;14.33;;;8.10;99.90;;;;;;5031760;28;20243;-67
2022/05/06 02:05:54;;;;;;;24.73;15.60;;;8.10;99.90;;;;;;5033212;28;20412;-67
2022/05/06 02:08:23;;;;;;;31.10;14.97;;;8.10;99.90;;;;;;5032932;28;20566;-68
2022/05/06 02:10:49;;;;;;;32.77;17.60;;;8.00;99.90;;;;;;5032729;28;20178;-64
2022/05/06 02:13:15;;;;;;;27.73;15.47;;;8.00;99.90;;;;;;5033153;28;20436;-69
2022/05/06 02:15:59;;;;;;;32.77;15.87;;;8.00;99.90;;;;;;5033330;28;20415;-64
2022/05/06 02:18:26;;;;;;;26.90;14.10;;;8.00;99.90;;;;;;5033067;28;20171;-69
2022/05/06 02:20:56;;;;;;;17.90;13.37;;;7.90;99.90;;;;;;5031446;28;20407;-68
2022/05/06 02:23:22;;;;;;;27.43;15.63;;;7.90;99.90;;;;;;5031747;28;20462;-63
2022/05/06 02:25:48;;;;;;;29.60;15.50;;;7.80;99.90;;;;;;5033302;28;20501;-67
2022/05/06 02:28:14;;;;;;;28.40;16.10;;;7.80;99.90;;;;;;5032722;28;20405;-63
2022/05/06 02:33:25;;;;;;;27.47;15.27;;;7.80;99.90;;;;;;5032970;28;20434;-64
2022/05/06 02:35:52;;;;;;;26.07;14.60;;;7.80;99.90;;;;;;5033243;28;20417;-67
2022/05/06 02:38:18;;;;;;;25.10;16.27;;;7.70;99.90;;;;;;5031811;28;20434;-68
2022/05/06 02:40:44;;;;;;;38.43;18.63;;;7.70;99.90;;;;;;5032369;28;20438;-63
2022/05/06 02:43:10;;;;;;;26.37;16.83;;;7.70;99.90;;;;;;5032830;28;20995;-64
2022/05/06 02:45:36;;;;;;;30.50;16.63;;;7.70;99.90;;;;;;5032841;28;20180;-65
2022/05/06 02:48:03;;;;;;;33.00;17.37;;;7.70;99.90;;;;;;5032785;28;20197;-67
2022/05/06 02:50:29;;;;;;;28.30;17.37;;;7.80;99.90;;;;;;5032404;28;20442;-68
2022/05/06 02:52:55;;;;;;;30.43;15.67;;;7.80;99.90;;;;;;5032792;28;20779;-67
2022/05/06 02:55:23;;;;;;;34.53;16.00;;;7.80;99.90;;;;;;5032819;28;20405;-64
2022/05/06 02:57:49;;;;;;;29.93;15.80;;;7.70;99.90;;;;;;5032806;28;20191;-68
2022/05/06 03:00:15;;;;;;;35.90;17.17;;;7.70;99.90;;;;;;5031257;28;20421;-63
2022/05/06 03:02:42;;;;;;;33.33;17.20;;;7.70;99.90;;;;;;5032757;28;20528;-63
2022/05/06 03:05:08;;;;;;;37.57;19.73;;;7.70;99.90;;;;;;5032477;28;20416;-63
2022/05/06 03:07:34;;;;;;;31.47;16.57;;;7.70;99.90;;;;;;5031496;28;20413;-69
2022/05/06 03:10:00;;;;;;;30.80;16.20;;;7.80;99.90;;;;;;5031898;28;20428;-64
2022/05/06 03:12:26;;;;;;;37.70;17.97;;;7.80;99.90;;;;;;5036503;28;20812;-63
2022/05/06 03:14:56;;;;;;;30.37;16.40;;;7.80;99.90;;;;;;5036509;28;20274;-63
2022/05/06 03:17:21;;;;;;;35.70;17.50;;;7.70;99.90;;;;;;5035090;28;20511;-68
2022/05/06 03:19:47;;;;;;;29.80;15.30;;;7.70;99.90;;;;;;5035473;28;20412;-67
2022/05/06 03:22:16;;;;;;;32.63;17.77;;;7.70;99.90;;;;;;5035737;28;20192;-67
2022/05/06 03:24:46;;;;;;;25.43;14.43;;;7.70;99.90;;;;;;5035979;28;20226;-67
2022/05/06 03:29:56;;;;;;;26.53;14.83;;;7.70;99.90;;;;;;5035156;28;20408;-67
2022/05/06 03:32:22;;;;;;;32.33;15.87;;;7.70;99.90;;;;;;5035861;28;20503;-67
2022/05/06 03:34:51;;;;;;;26.33;14.77;;;7.70;99.90;;;;;;5035864;28;20836;-67
2022/05/06 03:37:17;;;;;;;25.43;13.27;;;7.70;99.90;;;;;;5035313;28;20419;-64
2022/05/06 03:39:43;;;;;;;21.10;13.87;;;7.80;99.90;;;;;;5035001;28;20481;-68
2022/05/06 03:42:09;;;;;;;23.40;15.00;;;7.80;99.90;;;;;;5035524;28;20433;-68
2022/05/06 03:44:35;;;;;;;25.57;13.07;;;7.90;99.90;;;;;;5035588;28;20204;-64
2022/05/06 03:47:00;;;;;;;27.23;12.70;;;7.90;99.90;;;;;;5035740;28;20416;-63
2022/05/06 03:49:26;;;;;;;20.90;13.27;;;7.90;99.90;;;;;;5034913;28;20182;-67
2022/05/06 03:51:52;;;;;;;22.23;13.00;;;7.90;99.90;;;;;;5035271;28;20197;-69
2022/05/06 03:54:18;;;;;;;23.23;13.30;;;7.90;99.90;;;;;;5035301;28;20177;-68
2022/05/06 03:56:44;;;;;;;21.93;12.40;;;7.90;99.90;;;;;;5034018;28;20179;-63
2022/05/06 03:59:10;;;;;;;22.80;13.50;;;7.90;99.90;;;;;;5034571;28;20483;-63
2022/05/06 04:01:36;;;;;;;19.67;11.27;;;7.90;99.90;;;;;;5033951;28;20508;-63
2022/05/06 04:04:02;;;;;;;26.00;14.13;;;7.90;99.90;;;;;;5034891;28;20508;-64
2022/05/06 04:06:29;;;;;;;25.27;11.47;;;7.90;99.90;;;;;;5035405;28;20480;-67
2022/05/06 04:08:54;;;;;;;20.17;12.80;;;7.90;1.00;;;;;;5034634;28;20417;-68
2022/05/06 04:11:20;;;;;;;21.30;12.53;;;7.90;1.00;;;;;;5035155;28;20396;-63
2022/05/06 04:13:47;;;;;;;19.97;11.33;;;7.90;1.00;;;;;;5034558;28;20280;-67
2022/05/06 04:16:14;;;;;;;19.57;11.13;;;7.90;1.00;;;;;;5035027;28;20425;-64
2022/05/06 04:18:42;;;;;;;23.43;11.70;;;7.90;1.00;;;;;;5034334;28;20403;-68
2022/05/06 04:23:52;;;;;;;16.53;10.70;;;7.80;1.00;;;;;;5034921;28;20992;-64
2022/05/06 04:26:24;;;;;;;17.70;11.27;;;7.60;1.00;;;;;;5033705;28;20411;-67
2022/05/06 04:28:50;;;;;;;17.40;11.30;;;7.60;1.00;;;;;;5034435;28;20184;-64
2022/05/06 04:31:17;;;;;;;27.27;13.17;;;7.70;1.00;;;;;;5034907;28;20411;-67
2022/05/06 04:33:43;;;;;;;22.20;13.27;;;7.70;1.00;;;;;;5034339;28;20189;-64
2022/05/06 04:36:10;;;;;;;16.73;11.73;;;7.80;1.00;;;;;;5034757;28;20402;-67
2022/05/06 04:38:36;;;;;;;15.30;11.80;;;7.80;1.00;;;;;;5033060;28;20921;-64
2022/05/06 04:41:02;;;;;;;21.13;12.30;;;7.80;1.00;;;;;;5034728;28;20389;-68
2022/05/06 04:43:29;;;;;;;18.00;11.77;;;7.90;1.00;;;;;;5034570;28;20224;-63
2022/05/06 04:45:55;;;;;;;22.73;13.43;;;7.90;1.00;;;;;;5034566;28;20412;-68
2022/05/06 04:48:22;;;;;;;18.37;12.57;;;8.00;1.00;;;;;;5034351;28;20798;-65
2022/05/06 04:50:49;;;;;;;16.90;10.97;;;8.10;1.00;;;;;;5034024;28;20746;-63
2022/05/06 04:53:15;;;;;;;16.83;10.80;;;8.10;1.00;;;;;;5032697;28;20468;-63
2022/05/06 04:55:43;;;;;;;13.27;8.03;;;8.20;1.00;;;;;;5033118;28;20449;-63
2022/05/06 04:58:10;;;;;;;11.30;8.07;;;8.20;1.00;;;;;;5033319;28;20474;-69
2022/05/06 05:00:36;;;;;;;27.37;14.60;;;8.10;1.00;;;;;;5033575;28;20412;-64
2022/05/06 05:03:02;;;;;;;30.53;16.27;;;8.20;1.00;;;;;;5034200;28;20542;-63
2022/05/06 05:05:29;;;;;;;31.70;16.90;;;8.30;1.00;;;;;;5032864;28;20424;-68
2022/05/06 05:07:55;;;;;;;27.97;16.00;;;8.50;1.00;;;;;;5034316;28;20424;-63
2022/05/06 05:10:21;;;;;;;32.13;18.07;;;8.60;1.00;;;;;;5033338;28;20491;-64
2022/05/06 05:12:47;;;;;;;29.40;16.20;;;8.80;1.00;;;;;;5033653;28;20432;-64
2022/05/06 05:15:15;;;;;;;28.70;15.60;;;8.90;1.00;;;;;;5034328;28;20398;-68
2022/05/06 05:17:44;;;;;;;31.70;17.60;;;9.10;1.00;;;;;;5034031;28;20393;-64
2022/05/06 05:20:11;;;;;;;26.63;14.90;;;9.30;1.00;;;;;;5033497;28;20401;-68
2022/05/06 05:22:37;;;;;;;31.43;18.67;;;9.30;1.00;;;;;;5032526;28;20425;-69
2022/05/06 05:25:03;;;;;;;34.07;17.40;;;9.30;1.00;;;;;;5033830;28;20506;-68
2022/05/06 05:27:30;;;;;;;29.07;16.47;;;9.30;1.00;;;;;;5033478;28;20209;-65
2022/05/06 05:29:56;;;;;;;33.60;16.20;;;9.30;1.00;;;;;;5033105;28;20401;-64
2022/05/06 05:32:23;;;;;;;39.13;17.20;;;9.30;1.00;;;;;;5033675;28;20455;-65
2022/05/06 05:34:48;;;;;;;32.97;18.07;;;9.30;1.00;;;;;;5033298;28;20409;-64
2022/05/06 05:37:14;;;;;;;33.73;16.90;;;9.30;1.00;;;;;;5033716;28;20489;-63
2022/05/06 05:39:39;;;;;;;40.10;16.80;;;9.20;1.00;;;;;;5033067;28;20171;-68
2022/05/06 05:42:06;;;;;;;36.97;17.00;;;9.30;1.00;;;;;;5033531;28;20195;-70
2022/05/06 05:50:02;;;;;;;31.20;15.80;;;9.40;1.00;;;;;;5032918;28;20423;-65
2022/05/06 05:52:28;;;;;;;26.57;15.17;;;9.50;1.00;;;;;;5033312;28;20422;-68
2022/05/06 05:54:54;;;;;;;41.97;17.97;;;9.40;1.00;;;;;;5033291;28;20782;-67
2022/05/06 05:57:20;;;;;;;31.33;16.93;;;9.40;1.00;;;;;;5033384;28;20448;-63
2022/05/06 05:59:47;;;;;;;32.83;18.17;;;9.50;1.00;;;;;;5032807;28;20405;-67
2022/05/06 06:02:13;;;;;;;28.23;14.80;;;9.60;1.00;;;;;;5032913;28;20187;-63
2022/05/06 06:04:41;;;;;;;30.37;15.10;;;9.60;1.00;;;;;;5033069;28;20496;-67
2022/05/06 06:07:07;;;;;;;31.30;16.43;;;9.50;1.00;;;;;;5033265;28;20408;-63
2022/05/06 06:09:32;;;;;;;28.93;15.57;;;9.50;1.00;;;;;;5032785;28;20479;-63
2022/05/06 06:11:58;;;;;;;29.20;16.70;;;9.50;1.00;;;;;;5033365;28;20265;-68
2022/05/06 06:14:24;;;;;;;33.00;17.17;;;9.60;1.00;;;;;;5033230;28;20225;-63
2022/05/06 06:16:50;;;;;;;33.60;17.17;;;9.60;1.00;;;;;;5033149;28;20220;-64
2022/05/06 06:19:16;;;;;;;24.30;15.23;;;9.70;1.00;;;;;;5032640;28;20175;-67
2022/05/06 06:21:42;;;;;;;29.70;16.27;;;9.80;1.00;;;;;;5032661;28;20409;-63
2022/05/06 06:24:08;;;;;;;29.17;16.80;;;9.90;1.00;;;;;;5033244;28;20449;-68
2022/05/06 06:26:33;;;;;;;24.70;15.30;;;9.90;1.00;;;;;;5033234;28;20887;-63
2022/05/06 06:28:59;;;;;;;29.03;16.57;;;9.90;1.00;;;;;;5032454;28;20168;-64
2022/05/06 06:31:25;;;;;;;36.10;18.60;;;10.00;1.00;;;;;;5033110;28;20171;-64
2022/05/06 06:33:50;;;;;;;32.93;17.30;;;10.10;1.00;;;;;;5032921;28;20192;-64
2022/05/06 06:36:17;;;;;;;31.47;15.70;;;10.20;1.00;;;;;;5031815;28;20651;-67
2022/05/06 06:38:43;;;;;;;36.63;18.83;;;10.10;1.00;;;;;;5031055;28;20624;-64
2022/05/06 06:41:09;;;;;;;29.07;16.67;;;10.20;1.00;;;;;;5032475;28;20383;-64
2022/05/06 06:43:35;;;;;;;33.67;17.83;;;10.30;1.00;;;;;;5032899;28;20193;-63
2022/05/06 06:46:00;;;;;;;32.60;17.90;;;10.40;1.00;;;;;;5033216;28;20819;-64
2022/05/06 06:48:26;;;;;;;35.80;17.43;;;10.60;1.00;;;;;;5036700;28;20394;-69
2022/05/06 06:50:52;;;;;;;40.20;17.27;;;10.70;1.00;;;;;;5036268;28;20163;-64
2022/05/06 06:53:19;;;;;;;27.60;15.83;;;10.80;1.00;;;;;;5036565;28;20191;-69
2022/05/06 06:55:45;;;;;;;29.03;16.10;;;10.80;1.00;;;;;;5037239;28;20405;-68
2022/05/06 06:58:11;;;;;;;33.33;16.30;;;10.80;1.00;;;;;;5036599;28;20398;-69
2022/05/06 07:00:37;;;;;;;31.03;18.40;;;10.80;1.00;;;;;;5035509;28;20760;-63
2022/05/06 07:03:03;;;;;;;35.07;16.40;;;10.80;1.00;;;;;;5036329;28;20269;-64
2022/05/06 07:05:29;;;;;;;29.53;14.60;;;10.80;1.00;;;;;;5036314;28;20943;-68
2022/05/06 07:13:23;;;;;;;30.73;18.00;;;10.80;1.00;;;;;;5036335;28;21010;-67
2022/05/06 07:15:49;;;;;;;26.00;14.40;;;10.80;1.00;;;;;;5035884;28;20497;-68
2022/05/06 07:18:14;;;;;;;30.80;17.57;;;10.80;1.00;;;;;;5036377;28;20179;-66
2022/05/06 07:20:42;;;;;;;25.20;16.13;;;10.90;1.00;;;;;;5035682;28;20260;-68
2022/05/06 07:23:08;;;;;;;24.67;13.30;;;11.00;1.00;;;;;;5036195;28;20207;-63
2022/05/06 07:25:33;;;;;;;23.43;13.20;;;11.10;1.00;;;;;;5034987;28;20429;-64
2022/05/06 07:27:59;;;;;;;25.27;14.83;;;11.30;1.00;;;;;;5036108;28;20492;-63
2022/05/06 07:30:25;;;;;;;27.73;17.00;;;11.30;1.00;;;;;;5035363;28;20226;-67
2022/05/06 07:32:50;;;;;;;28.10;13.83;;;11.40;1.00;;;;;;5035540;28;20692;-61
2022/05/06 07:35:16;;;;;;;24.60;14.83;;;11.50;1.00;;;;;;5036059;28;20381;-61
2022/05/06 07:37:42;;;;;;;22.90;13.63;;;11.70;1.00;;;;;;5035753;28;20290;-65
2022/05/06 07:40:11;;;;;;;26.07;14.23;;;11.80;1.00;;;;;;5035164;28;20182;-66
2022/05/06 07:42:37;;;;;;;23.77;13.67;;;11.90;1.00;;;;;;5035911;28;20238;-67
2022/05/06 07:45:04;;;;;;;24.23;14.30;;;12.10;1.00;;;;;;5035642;28;21008;-62
2022/05/06 07:47:30;;;;;;;25.93;15.20;;;12.30;1.00;;;;;;5035657;28;20752;-65
2022/05/06 07:49:56;;;;;;;24.90;15.00;;;12.30;1.00;;;;;;5033377;28;21021;-65
2022/05/06 07:52:22;;;;;;;24.40;14.17;;;12.40;1.00;;;;;;5035452;28;20430;-61
2022/05/06 07:54:47;;;;;;;23.47;13.20;;;12.50;1.00;;;;;;5035626;28;20164;-66
2022/05/06 07:57:13;;;;;;;31.43;16.80;;;12.40;1.00;;;;;;5035321;28;20259;-66
2022/05/06 07:59:38;;;;;;;23.10;14.00;;;12.40;1.00;;;;;;5034771;28;20175;-66
2022/05/06 08:04:48;;;;;;;27.87;13.93;;;12.60;1.00;;;;;;5035343;28;20282;-61
2022/05/06 08:07:15;;;;;;;23.70;14.00;;;12.80;1.00;;;;;;5035476;28;20468;-67
2022/05/06 08:09:41;;;;;;;21.63;12.80;;;12.90;1.00;;;;;;5034323;28;20152;-65
2022/05/06 08:12:07;;;;;;;28.13;14.53;;;13.10;1.00;;;;;;5033880;28;20419;-66
2022/05/06 08:14:33;;;;;;;25.63;13.80;;;13.10;1.00;;;;;;5035383;28;20887;-60
2022/05/06 08:16:59;;;;;;;23.87;12.93;;;13.30;99.90;;;;;;5035424;28;20438;-66
2022/05/06 08:19:26;;;;;;;19.63;13.30;;;13.40;99.90;;;;;;5033169;28;20254;-61
2022/05/06 08:21:52;;;;;;;21.63;11.73;;;13.60;99.90;;;;;;5035119;28;20405;-62
2022/05/06 08:24:19;;;;;;;23.50;13.30;;;13.60;99.90;;;;;;5035007;28;20449;-65
2022/05/06 08:26:45;;;;;;;18.60;11.43;;;13.60;99.90;;;;;;5035140;28;20730;-61
2022/05/06 08:29:11;;;;;;;21.80;13.10;;;13.70;99.90;;;;;;5033907;28;20877;-66
2022/05/06 08:31:40;;;;;;;24.67;14.30;;;13.70;99.90;;;;;;5034993;28;20921;-61
2022/05/06 08:34:10;;;;;;;28.87;14.10;;;13.80;99.90;;;;;;5033511;28;20871;-67
2022/05/06 08:36:38;;;;;;;20.13;13.57;;;14.00;99.90;;;;;;5034886;28;20532;-67
2022/05/06 08:39:05;;;;;;;25.30;13.67;;;14.20;99.90;;;;;;5032604;28;20422;-67
2022/05/06 08:41:31;;;;;;;23.43;14.90;;;14.30;99.90;;;;;;5034690;28;20377;-67
2022/05/06 08:43:58;;;;;;;22.60;14.43;;;14.50;99.90;;;;;;5034564;28;20424;-66
2022/05/06 08:51:59;;;;;;;17.63;13.03;;;14.80;99.90;;;;;;5034528;28;20763;-60
2022/05/06 08:54:25;;;;;;;31.27;14.13;;;15.00;99.90;;;;;;5034425;28;20405;-60
2022/05/06 08:56:52;;;;;;;24.27;14.27;;;15.20;99.90;;;;;;5034414;28;20406;-66
2022/05/06 08:59:18;;;;;;;22.57;14.30;;;15.40;99.90;;;;;;5033938;28;20381;-59
2022/05/06 09:01:43;;;;;;;24.17;13.80;;;15.50;99.90;;;;;;5034223;28;20398;-59
2022/05/06 09:04:09;;;;;;;21.27;13.57;;;15.60;99.90;;;;;;5034045;28;20656;-65
2022/05/06 09:06:35;;;;;;;25.20;14.83;;;15.70;99.90;;;;;;5033466;28;20266;-65
2022/05/06 09:09:01;;;;;;;21.93;13.00;;;15.80;99.90;;;;;;5032975;28;20160;-61
2022/05/06 09:14:15;;;;;;;27.20;15.47;;;15.80;99.90;;;;;;5034501;28;20449;-60
2022/05/06 09:16:41;;;;;;;25.70;15.00;;;16.00;99.90;;;;;;5034096;28;20403;-60
2022/05/06 09:19:25;;;;;;;30.50;15.90;;;16.00;99.90;;;;;;5033520;28;20398;-65
2022/05/06 09:22:06;;;;;;;25.10;16.00;;;16.30;99.90;;;;;;5034093;28;20198;-61
2022/05/06 09:24:33;;;;;;;24.90;14.50;;;16.50;99.90;;;;;;5032978;28;20472;-62
2022/05/06 09:27:13;;;;;;;19.70;13.20;;;16.60;99.90;;;;;;5034033;28;20398;-67
2022/05/06 09:29:49;;;;;;;22.57;13.53;;;16.40;99.90;;;;;;5033287;28;20476;-61
2022/05/06 09:32:24;;;;;;;19.40;11.97;;;16.70;99.90;;;;;;5033765;28;20418;-66
2022/05/06 09:34:54;;;;;;;24.90;14.63;;;17.00;99.90;;;;;;5033825;28;20481;-67
2022/05/06 09:37:42;;;;;;;18.60;12.40;;;17.30;99.90;;;;;;5033815;28;20406;-61
2022/05/06 09:40:18;;;;;;;20.43;12.60;;;17.60;99.90;;;;;;5032380;28;20402;-68
2022/05/06 09:42:48;;;;;;;21.73;13.03;;;18.20;99.90;;;;;;5032232;28;20426;-61
2022/05/06 09:45:27;;;;;;;18.53;12.80;;;18.60;99.90;;;;;;5033702;28;20504;-68
2022/05/06 09:47:58;;;;;;;23.53;13.33;;;19.20;99.90;;;;;;5032608;28;20917;-68
2022/05/06 09:50:40;;;;;;;21.83;12.37;;;19.60;99.90;;;;;;5032919;28;20933;-67
2022/05/06 09:53:08;;;;;;;22.00;11.87;;;19.90;99.90;;;;;;5033484;28;20838;-67
2022/05/06 09:55:36;;;;;;;16.87;11.27;;;20.30;99.90;;;;;;5032257;28;20394;-60
2022/05/06 09:58:02;;;;;;;16.07;10.40;;;20.50;99.90;;;;;;5033107;28;20492;-67
2022/05/06 10:00:28;;;;;;;11.27;8.60;;;20.70;99.90;;;;;;5032446;28;20438;-68
2022/05/06 10:02:55;;;;;;;14.23;10.43;;;20.60;99.90;;;;;;5033065;28;20798;-61
2022/05/06 10:05:21;;;;;;;17.97;11.03;;;20.50;99.90;;;;;;5033714;28;20174;-61
2022/05/06 10:07:47;;;;;;;14.27;10.00;;;20.10;99.90;;;;;;5033347;28;20425;-60
2022/05/06 10:10:20;;;;;;;13.10;9.70;;;19.80;99.90;;;;;;5032729;28;20419;-61
2022/05/06 10:12:54;;;;;;;11.60;8.50;;;19.60;99.90;;;;;;5031845;28;20529;-64
2022/05/06 10:15:22;;;;;;;11.87;8.83;;;19.80;95.80;;;;;;5033429;28;20410;-59
2022/05/06 10:17:58;;;;;;;12.73;8.20;;;19.50;95.50;;;;;;5032631;28;20413;-66
2022/05/06 10:20:41;;;;;;;14.07;9.33;;;19.30;95.40;;;;;;5035027;28;20410;-68
2022/05/06 10:23:08;;;;;;;14.27;8.47;;;19.00;95.30;;;;;;5037132;28;20434;-61
2022/05/06 10:25:43;;;;;;;13.60;9.37;;;18.90;95.30;;;;;;5037372;28;20460;-69
2022/05/06 10:34:18;;;;;;;12.23;8.27;;;20.10;95.70;;;;;;5037178;28;20497;-61
2022/05/06 10:36:54;;;;;;;12.97;9.43;;;20.10;95.80;;;;;;5036344;28;20414;-62
2022/05/06 10:39:21;;;;;;;13.53;8.30;;;20.10;95.70;;;;;;5036263;28;20406;-69
2022/05/06 10:42:10;;;;;;;11.87;8.50;;;19.90;95.70;;;;;;5036792;28;20406;-61
2022/05/06 10:44:46;;;;;;;17.40;10.37;;;19.60;91.40;;;;;;5036883;28;20445;-68
2022/05/06 10:47:11;;;;;;;15.77;9.63;;;19.30;90.70;;;;;;5036789;28;20425;-70
2022/05/06 10:49:40;;;;;;;14.60;9.70;;;19.10;91.10;;;;;;5036403;28;20398;-62
2022/05/06 10:52:28;;;;;;;13.80;9.00;;;19.00;91.30;;;;;;5036779;28;20179;-70
2022/05/06 10:54:55;;;;;;;15.50;9.43;;;18.80;90.90;;;;;;5035464;28;20422;-61
2022/05/06 10:57:25;;;;;;;15.47;10.07;;;19.00;95.40;;;;;;5036620;28;20414;-68
2022/05/06 10:59:51;;;;;;;21.07;13.50;;;19.20;95.40;;;;;;5036076;28;20433;-61
2022/05/06 11:02:20;;;;;;;15.67;10.43;;;19.30;94.10;;;;;;5036383;28;20545;-68
2022/05/06 11:04:53;;;;;;;19.07;11.07;;;19.50;91.60;;;;;;5036536;28;20453;-68
2022/05/06 11:07:19;;;;;;;15.73;10.43;;;19.60;90.50;;;;;;5036397;28;20453;-68
2022/05/06 11:09:45;;;;;;;15.00;10.97;;;19.70;90.20;;;;;;5035817;28;20394;-61
2022/05/06 11:12:27;;;;;;;22.00;11.43;;;19.60;88.80;;;;;;5035825;28;20908;-61
2022/05/06 11:14:56;;;;;;;16.40;10.23;;;19.60;90.50;;;;;;5036432;28;20902;-61
2022/05/06 11:17:24;;;;;;;19.57;12.17;;;19.80;90.00;;;;;;5036214;28;20399;-63
2022/05/06 11:19:51;;;;;;;19.83;13.40;;;20.50;88.20;;;;;;5035751;28;20402;-61
2022/05/06 11:22:17;;;;;;;16.30;11.50;;;21.10;91.30;;;;;;5036332;28;20418;-61
2022/05/06 11:24:45;;;;;;;18.80;12.73;;;21.40;87.80;;;;;;5036243;28;20449;-70
2022/05/06 11:27:15;;;;;;;17.47;11.70;;;21.60;86.00;;;;;;5036262;28;20478;-61
2022/05/06 11:29:48;;;;;;;14.30;11.00;;;21.50;80.60;;;;;;5035424;28;20406;-69
2022/05/06 11:32:15;;;;;;;19.73;12.70;;;21.10;78.40;;;;;;5034470;28;20868;-70
2022/05/06 11:34:59;;;;;;;22.50;13.50;;;20.70;73.50;;;;;;5036138;28;20402;-69
2022/05/06 11:37:31;;;;;;;19.67;11.77;;;20.70;75.10;;;;;;5035804;28;20434;-63
2022/05/06 11:42:41;;;;;;;22.27;13.30;;;20.90;73.10;;;;;;5035847;28;20953;-70
2022/05/06 11:47:52;;;;;;;20.70;12.80;;;20.10;66.50;;;;;;5035222;28;20655;-68
2022/05/06 11:50:18;;;;;;;19.20;13.40;;;19.80;66.00;;;;;;5035208;28;20403;-69
2022/05/06 11:52:46;;;;;;;22.00;14.37;;;19.40;66.40;;;;;;5035705;28;20422;-69
2022/05/06 11:55:14;;;;;;;20.33;12.90;;;19.30;68.10;;;;;;5035673;28;20411;-61
2022/05/06 11:57:40;;;;;;;22.87;14.00;;;19.60;75.10;;;;;;5035496;28;20403;-71
2022/05/06 12:00:07;;;;;;;19.67;12.80;;;20.00;72.90;;;;;;5034909;28;20410;-67
2022/05/06 12:02:33;;;;;;;20.70;11.80;;;20.20;71.70;;;;;;5035342;28;20488;-70
2022/05/06 12:04:59;;;;;;;26.07;15.23;;;20.30;73.90;;;;;;5035032;28;20488;-65
2022/05/06 12:07:45;;;;;;;21.43;12.50;;;20.80;75.30;;;;;;5035111;28;20828;-70
2022/05/06 12:10:32;;;;;;;22.57;13.57;;;21.70;78.60;;;;;;5034666;28;20213;-62
2022/05/06 12:13:11;;;;;;;16.57;11.30;;;22.40;79.00;;;;;;5034751;28;20441;-69
2022/05/06 12:15:38;;;;;;;19.10;12.67;;;22.40;72.20;;;;;;5035255;28;20429;-61
2022/05/06 12:18:11;;;;;;;20.83;11.80;;;22.10;63.20;;;;;;5034110;28;20468;-69
2022/05/06 12:20:38;;;;;;;24.20;11.17;;;21.70;60.50;;;;;;5034382;28;20837;-69
2022/05/06 12:23:09;;;;;;;20.87;12.53;;;21.20;60.40;;;;;;5034443;28;20414;-70
2022/05/06 12:25:36;;;;;;;16.80;11.33;;;21.10;57.80;;;;;;5035204;28;20897;-61
2022/05/06 12:28:15;;;;;;;19.00;12.47;;;20.80;56.60;;;;;;5034876;28;20899;-69
2022/05/06 12:30:42;;;;;;;19.43;11.00;;;21.30;61.00;;;;;;5033045;28;20784;-61
2022/05/06 12:33:13;;;;;;;12.77;8.30;;;22.00;59.80;;;;;;5034980;28;20422;-61
2022/05/06 12:36:00;;;;;;;13.53;9.13;;;22.00;59.10;;;;;;5035000;28;20398;-70
2022/05/06 12:38:36;;;;;;;9.80;7.80;;;21.70;48.30;;;;;;5034770;28;20409;-69
2022/05/06 12:41:15;;;;;;;17.43;10.13;;;21.50;48.40;;;;;;5034410;28;20416;-61
2022/05/06 12:43:40;;;;;;;11.37;9.20;;;21.90;46.20;;;;;;5033349;28;20450;-70
2022/05/06 12:46:06;;;;;;;9.47;8.03;;;21.90;39.50;;;;;;5034661;28;20421;-62
2022/05/06 12:51:16;;;;;;;13.40;8.00;;;21.80;43.70;;;;;;5034624;28;20170;-61
2022/05/06 12:53:42;;;;;;;12.00;8.80;;;21.60;36.90;;;;;;5033144;28;20829;-70
2022/05/06 12:56:17;;;;;;;10.73;7.80;;;21.40;37.90;;;;;;5034433;28;20172;-69
2022/05/06 12:58:43;;;;;;;14.53;8.57;;;21.40;34.50;;;;;;5033346;28;20167;-62
2022/05/06 13:01:09;;;;;;;12.70;8.40;;;21.00;35.50;;;;;;5032871;28;20910;-61
2022/05/06 13:03:34;;;;;;;10.97;9.27;;;20.60;34.00;;;;;;5032827;28;20264;-70
2022/05/06 13:06:00;;;;;;;13.40;8.30;;;20.50;33.10;;;;;;5034173;28;20199;-62
2022/05/06 13:08:27;;;;;;;10.53;8.43;;;20.40;39.70;;;;;;5033997;28;20179;-61
2022/05/06 13:10:53;;;;;;;11.43;8.27;;;20.10;35.30;;;;;;5033898;28;20163;-68
2022/05/06 13:13:19;;;;;;;13.77;6.83;;;19.80;33.10;;;;;;5034190;28;20423;-61
2022/05/06 13:15:44;;;;;;;9.13;6.70;;;19.70;33.40;;;;;;5033735;28;20155;-62
2022/05/06 13:18:10;;;;;;;6.67;6.00;;;19.30;33.30;;;;;;5033719;28;20399;-61
2022/05/06 13:20:36;;;;;;;10.13;7.40;;;18.90;33.80;;;;;;5033301;28;20171;-62
2022/05/06 13:23:02;;;;;;;6.63;5.93;;;18.90;36.80;;;;;;5033904;28;20422;-61
2022/05/06 13:25:28;;;;;;;7.53;6.07;;;19.10;40.80;;;;;;5033882;28;20171;-71
2022/05/06 13:27:54;;;;;;;8.53;5.60;;;19.50;41.90;;;;;;5034180;28;20222;-69